Time;durP1;ratioP1;P1;durP2;ratioP2;P2;SDS_P1;SDS_P2;PMS_P1;PMS_P2;Temp;Humidity;BMP_temperature;BMP_pressure;BME280_temperature;BME280_humidity;BME280_pressure;Samples;Min_cycle;Max_cycle;Signal;HPM_P1;HPM_P2
2023/05/26 00:00:20;;;;;;;16.83;10.50;;;;;;;12.31;100.00;94846.19;5038990;28;20033;-78
2023/05/26 00:02:45;;;;;;;17.73;11.45;;;;;;;12.27;100.00;94845.91;5055467;28;20035;-78
2023/05/26 00:05:13;;;;;;;22.38;13.05;;;;;;;12.17;100.00;94853.81;5055453;28;20029;-77
2023/05/26 00:07:39;;;;;;;21.90;13.40;;;;;;;12.13;100.00;94848.31;5054838;28;20021;-78
2023/05/26 00:10:06;;;;;;;24.90;14.25;;;;;;;12.25;100.00;94852.47;5072100;28;20057;-78
2023/05/26 00:12:32;;;;;;;22.00;13.20;;;;;;;12.29;100.00;94846.44;5055311;28;20078;-78
2023/05/26 00:14:57;;;;;;;22.52;12.68;;;;;;;12.36;100.00;94850.66;5055418;28;20368;-77
2023/05/26 00:17:22;;;;;;;24.25;13.40;;;;;;;12.38;100.00;94845.91;5054605;28;20094;-78
2023/05/26 00:19:49;;;;;;;21.25;12.30;;;;;;;12.50;100.00;94851.66;5055098;28;20454;-78
2023/05/26 00:22:17;;;;;;;19.88;10.95;;;;;;;12.63;100.00;94842.41;5055061;28;20075;-78
2023/05/26 00:24:42;;;;;;;16.75;9.85;;;;;;;12.50;100.00;94846.41;5056251;28;20031;-77
2023/05/26 00:27:08;;;;;;;25.42;9.93;;;;;;;12.48;100.00;94848.50;5054454;28;20025;-77
2023/05/26 00:29:33;;;;;;;15.70;9.50;;;;;;;12.52;100.00;94846.13;5056115;28;20033;-78
2023/05/26 00:31:59;;;;;;;17.45;10.45;;;;;;;12.50;100.00;94837.72;5054866;28;20032;-77
2023/05/26 00:34:43;;;;;;;19.55;9.90;;;;;;;12.72;100.00;94837.38;5056158;28;20029;-77
2023/05/26 00:37:09;;;;;;;14.90;10.13;;;;;;;12.75;100.00;94844.72;5054243;28;20032;-77
2023/05/26 00:39:35;;;;;;;18.42;9.75;;;;;;;12.92;100.00;94841.78;5055952;28;20795;-77
2023/05/26 00:42:19;;;;;;;14.93;8.60;;;;;;;12.98;100.00;94845.97;5054690;28;20380;-78
2023/05/26 00:44:45;;;;;;;16.08;8.90;;;;;;;13.00;100.00;94845.69;5055637;28;20033;-77
2023/05/26 00:47:10;;;;;;;24.30;9.35;;;;;;;12.88;100.00;94851.28;5054211;28;20123;-78
2023/05/26 00:49:54;;;;;;;15.75;8.48;;;;;;;13.03;100.00;94849.63;5054549;28;20421;-78
2023/05/26 00:52:40;;;;;;;16.10;8.77;;;;;;;12.94;100.00;94852.03;5054500;28;20027;-78
2023/05/26 00:55:06;;;;;;;20.52;9.63;;;;;;;12.53;100.00;94851.13;5054452;28;20024;-78
2023/05/26 00:57:33;;;;;;;16.75;8.75;;;;;;;12.66;100.00;94848.97;5054166;28;20021;-77
2023/05/26 00:59:59;;;;;;;13.98;8.68;;;;;;;12.68;100.00;94844.25;5038093;28;20106;-77
2023/05/26 01:05:27;;;;;;;12.95;8.25;;;;;;;12.69;100.00;94837.94;5054784;28;20036;-77
2023/05/26 01:07:53;;;;;;;18.33;8.32;;;;;;;12.64;100.00;94838.72;5054142;28;20454;-78
2023/05/26 01:10:18;;;;;;;17.20;9.00;;;;;;;12.46;100.00;94847.19;5055300;28;20032;-78
2023/05/26 01:12:55;;;;;;;13.10;8.82;;;;;;;12.36;100.00;94840.91;5037643;28;20119;-78
2023/05/26 01:15:46;;;;;;;18.42;9.55;;;;;;;12.43;100.00;94841.44;5064406;28;20029;-77
2023/05/26 01:18:16;;;;;;;14.30;8.93;;;;;;;12.42;100.00;94846.94;5056518;28;20046;-78
2023/05/26 01:21:08;;;;;;;15.10;8.32;;;;;;;12.42;100.00;94845.13;5040863;28;20044;-78
2023/05/26 01:23:59;;;;;;;13.27;8.45;;;;;;;12.53;100.00;94845.06;5057603;28;20452;-78
2023/05/26 01:26:30;;;;;;;13.48;7.95;;;;;;;12.46;100.00;94847.19;5056084;28;20063;-77
2023/05/26 01:29:00;;;;;;;14.60;8.38;;;;;;;12.41;100.00;94845.38;5062309;28;20025;-78
2023/05/26 01:31:44;;;;;;;13.77;7.90;;;;;;;12.50;100.00;94843.78;5064262;28;20115;-78
2023/05/26 01:37:13;;;;;;;14.80;7.65;;;;;;;12.59;100.00;94844.00;5063666;28;20035;-77
2023/05/26 01:39:57;;;;;;;13.57;8.18;;;;;;;12.53;100.00;94845.06;5075007;28;20032;-78
2023/05/26 01:42:27;;;;;;;17.30;8.60;;;;;;;12.30;100.00;94842.75;5076431;28;20093;-78
2023/05/26 01:47:39;;;;;;;10.88;7.45;;;;;;;12.40;100.00;94844.56;5076881;28;20031;-78
2023/05/26 01:50:06;;;;;;;12.10;7.60;;;;;;;12.41;100.00;94850.63;5075816;28;20036;-78
2023/05/26 01:52:32;;;;;;;12.38;7.22;;;;;;;12.37;100.00;94846.97;5076318;28;20071;-77
2023/05/26 01:55:01;;;;;;;18.30;7.95;;;;;;;12.30;100.00;94840.13;5059658;28;20131;-77
2023/05/26 01:57:45;;;;;;;13.13;7.63;;;;;;;12.22;100.00;94830.19;5075871;28;20029;-77
2023/05/26 02:00:12;;;;;;;16.10;7.85;;;;;;;12.24;100.00;94840.41;5059593;28;20131;-77
2023/05/26 02:02:37;;;;;;;13.65;8.20;;;;;;;12.36;100.00;94834.88;5075973;28;20024;-77
2023/05/26 02:05:03;;;;;;;13.63;8.10;;;;;;;12.48;100.00;94837.19;5077018;28;20032;-78
2023/05/26 02:07:29;;;;;;;9.85;6.68;;;;;;;12.55;100.00;94838.50;5075360;28;20066;-78
2023/05/26 02:09:55;;;;;;;19.45;7.18;;;;;;;12.58;100.00;94847.69;5077108;28;20021;-78
2023/05/26 02:12:20;;;;;;;12.90;7.20;;;;;;;12.50;100.00;94848.22;5075638;28;20027;-78
2023/05/26 02:15:05;;;;;;;14.02;8.10;;;;;;;12.41;100.00;94842.75;5075998;28;20436;-77
2023/05/26 02:17:30;;;;;;;19.80;7.82;;;;;;;12.17;100.00;94838.03;5076609;28;20024;-77
2023/05/26 02:19:57;;;;;;;17.27;8.52;;;;;;;12.02;100.00;94839.63;5075625;28;20071;-78
2023/05/26 02:22:22;;;;;;;18.42;8.50;;;;;;;11.96;100.00;94832.81;5076856;28;20028;-77
2023/05/26 02:24:48;;;;;;;16.90;8.43;;;;;;;11.74;100.00;94825.97;5076909;28;20024;-78
2023/05/26 02:27:32;;;;;;;15.48;8.18;;;;;;;11.91;100.00;94832.81;5075507;28;20031;-78
2023/05/26 02:29:58;;;;;;;18.58;9.25;;;;;;;12.11;100.00;94828.63;5075447;28;20445;-77
2023/05/26 02:32:23;;;;;;;17.65;7.88;;;;;;;12.24;100.00;94832.53;5075451;28;20028;-77
2023/05/26 02:34:49;;;;;;;13.25;7.95;;;;;;;12.43;100.00;94825.66;5072760;28;20039;-77
2023/05/26 02:37:33;;;;;;;15.10;7.65;;;;;;;12.45;100.00;94828.00;5072115;28;20158;-78
2023/05/26 02:40:17;;;;;;;16.58;7.88;;;;;;;12.45;100.00;94828.00;5072804;28;20055;-77
2023/05/26 02:43:01;;;;;;;13.32;8.10;;;;;;;12.25;100.00;94824.38;5074246;28;20031;-78
2023/05/26 02:45:45;;;;;;;12.55;8.45;;;;;;;12.17;100.00;94824.91;5075865;28;20028;-78
2023/05/26 02:48:10;;;;;;;17.42;8.23;;;;;;;12.17;100.00;94822.28;5076306;28;20027;-78
2023/05/26 02:50:36;;;;;;;15.32;8.75;;;;;;;12.16;100.00;94813.63;5076648;28;20020;-78
2023/05/26 02:53:02;;;;;;;16.67;9.07;;;;;;;12.08;100.00;94818.66;5075429;28;20032;-78
2023/05/26 02:55:27;;;;;;;16.95;9.60;;;;;;;12.15;100.00;94819.94;5075547;28;20028;-78
2023/05/26 02:57:53;;;;;;;15.68;8.93;;;;;;;12.33;100.00;94822.25;5076470;28;20020;-77
2023/05/26 03:00:19;;;;;;;14.70;8.35;;;;;;;12.47;100.00;94815.38;5075245;28;20162;-78
2023/05/26 03:02:44;;;;;;;14.82;8.00;;;;;;;12.67;100.00;94829.53;5075599;28;20493;-77
2023/05/26 03:05:10;;;;;;;12.10;6.65;;;;;;;12.83;100.00;94815.25;5058753;28;20073;-77
2023/05/26 03:07:35;;;;;;;14.15;6.85;;;;;;;12.92;100.00;94814.72;5074951;28;20117;-77
2023/05/26 03:10:01;;;;;;;12.18;6.95;;;;;;;12.97;100.00;94817.31;5075281;28;20024;-77
2023/05/26 03:12:27;;;;;;;9.75;6.10;;;;;;;13.04;100.00;94817.00;5074859;28;20024;-78
2023/05/26 07:01:17;;;;;;;11.43;5.88;;;;;;;17.34;100.00;94872.22;5150050;22;20067;-79
2023/05/26 07:03:42;;;;;;;10.73;5.85;;;;;;;17.60;100.00;94880.38;5057102;28;20050;-79
2023/05/26 07:06:07;;;;;;;13.18;5.95;;;;;;;17.51;100.00;94882.19;5062310;28;20024;-80
2023/05/26 07:14:21;;;;;;;12.52;6.72;;;;;;;17.64;100.00;94883.22;5080292;28;20078;-80
2023/05/26 07:16:46;;;;;;;13.95;6.75;;;;;;;17.85;100.00;94880.09;5061893;28;20498;-83
2023/05/26 07:19:12;;;;;;;13.13;6.45;;;;;;;17.81;100.00;94870.09;5059590;28;20040;-80
2023/05/26 07:21:56;;;;;;;8.77;5.95;;;;;;;18.06;100.00;94875.13;5079825;28;20416;-80
2023/05/26 07:24:22;;;;;;;12.55;6.43;;;;;;;18.06;100.00;94877.78;5062293;28;20059;-80
2023/05/26 07:26:48;;;;;;;20.65;5.97;;;;;;;17.75;100.00;94881.91;5045292;28;20021;-80
2023/05/26 07:29:13;;;;;;;16.05;5.75;;;;;;;18.12;100.00;94879.25;5045628;28;20336;-80
2023/05/26 07:31:39;;;;;;;10.07;6.60;;;;;;;18.26;100.00;94881.03;5062046;28;20028;-80
2023/05/26 07:37:07;;;;;;;;;;;;;;;18.67;100.00;94871.25;5064513;28;20081;-80
2023/05/26 07:39:32;;;;;;;12.02;6.00;;;;;;;18.84;100.00;94873.94;5079696;28;19912;-80
2023/05/26 07:41:57;;;;;;;13.48;6.38;;;;;;;18.66;100.00;94875.78;5061813;28;20318;-80
2023/05/26 07:44:23;;;;;;;14.13;6.47;;;;;;;19.03;100.00;94876.38;5061735;28;20016;-80
2023/05/26 07:47:07;;;;;;;13.05;6.38;;;;;;;18.91;100.00;94878.81;5078931;28;20035;-80
2023/05/26 07:49:32;;;;;;;9.35;6.10;;;;;;;18.94;100.00;94876.34;5061680;28;20024;-80
2023/05/26 07:51:58;;;;;;;9.25;6.35;;;;;;;19.42;100.00;94876.59;5061645;28;20542;-80
2023/05/26 07:57:07;;;;;;;10.60;6.22;;;;;;;19.80;100.00;94885.06;5063776;28;20825;-80
2023/05/26 07:59:32;;;;;;;9.75;6.40;;;;;;;20.16;100.00;94879.44;5061298;28;20033;-80
2023/05/26 08:04:42;;;;;;;11.10;6.80;;;;;;;20.37;100.00;94881.44;5064018;28;20036;-80
2023/05/26 08:07:07;;;;;;;13.10;6.82;;;;;;;20.87;100.00;94884.59;5044154;28;20353;-80
2023/05/26 08:09:33;;;;;;;20.45;6.85;;;;;;;21.00;100.00;94883.59;5061278;28;20031;-80
2023/05/26 08:11:58;;;;;;;15.43;5.95;;;;;;;21.44;100.00;94882.53;5043762;28;20051;-80
2023/05/26 08:14:26;;;;;;;9.98;5.63;;;;;;;21.58;100.00;94884.94;5044674;28;20430;-80
2023/05/26 08:16:52;;;;;;;9.02;5.88;;;;;;;21.90;100.00;94885.38;5060797;28;20024;-80
2023/05/26 08:19:55;;;;;;;17.45;7.22;;;;;;;21.59;100.00;94881.97;5044900;28;20087;-80
2023/05/26 08:22:20;;;;;;;9.48;6.57;;;;;;;21.28;100.00;94883.13;5078942;28;20025;-80
2023/05/26 08:25:04;;;;;;;10.93;6.80;;;;;;;22.09;100.00;94895.53;5060830;28;20376;-80
2023/05/26 08:27:30;;;;;;;14.80;6.55;;;;;;;22.18;100.00;94895.47;5060478;28;20028;-80
2023/05/26 08:29:55;;;;;;;12.20;8.20;;;;;;;20.83;100.00;94889.00;5060932;28;20101;-80
2023/05/26 08:32:58;;;;;;;10.15;6.78;;;;;;;21.94;100.00;94896.16;5060761;28;20384;-80
2023/05/26 08:35:27;;;;;;;17.42;9.40;;;;;;;22.11;100.00;94900.56;5060197;28;20025;-80
2023/05/26 08:37:53;;;;;;;14.85;7.43;;;;;;;21.78;100.00;94899.41;5060764;28;20073;-80
2023/05/26 08:40:18;;;;;;;14.98;8.15;;;;;;;22.65;100.00;94897.06;5078582;28;20115;-80
2023/05/26 08:42:47;;;;;;;12.25;8.68;;;;;;;22.04;100.00;94890.41;5060599;28;20029;-80
2023/05/26 08:45:13;;;;;;;12.10;8.45;;;;;;;21.71;100.00;94899.16;5044490;28;20036;-80
2023/05/26 08:47:41;;;;;;;11.60;7.05;;;;;;;21.95;100.00;94889.69;5043688;28;20024;-80
2023/05/26 08:50:08;;;;;;;16.27;8.45;;;;;;;21.80;100.00;94891.09;5060370;28;20462;-80
2023/05/26 08:52:35;;;;;;;15.60;7.85;;;;;;;22.29;100.00;94887.84;5060419;28;20032;-80
2023/05/26 08:55:01;;;;;;;14.65;7.32;;;;;;;22.18;100.00;94882.91;5060182;28;20169;-81
2023/05/26 08:57:29;;;;;;;13.98;7.72;;;;;;;21.87;100.00;94881.47;5059919;28;20103;-80
2023/05/26 08:59:55;;;;;;;15.32;6.82;;;;;;;22.06;100.00;94882.84;5060215;28;20041;-80
2023/05/26 09:02:21;;;;;;;14.45;8.60;;;;;;;21.38;100.00;94879.28;5060216;28;20046;-80
2023/05/26 09:04:46;;;;;;;14.00;6.97;;;;;;;21.93;100.00;94883.91;5078323;28;20024;-80
2023/05/26 09:07:30;;;;;;;15.02;7.10;;;;;;;21.87;100.00;94881.47;5059719;28;20429;-80
2023/05/26 09:10:21;;;;;;;15.82;8.38;;;;;;;21.87;100.00;94881.47;5043757;28;20024;-80
2023/05/26 09:12:47;;;;;;;12.80;7.78;;;;;;;22.21;100.00;94878.00;5077233;28;20098;-80
2023/05/26 09:18:20;;;;;;;11.77;6.28;;;;;;;22.37;100.00;94884.28;5062665;28;20031;-80
2023/05/26 09:20:48;;;;;;;10.98;6.78;;;;;;;21.66;100.00;94886.00;5059926;28;20028;-80
2023/05/26 09:23:15;;;;;;;12.32;7.95;;;;;;;21.82;100.00;94881.69;5043493;28;20024;-80
2023/05/26 09:25:59;;;;;;;9.50;6.45;;;;;;;21.97;100.00;94887.50;5043000;28;20047;-80
2023/05/26 09:28:24;;;;;;;9.45;5.95;;;;;;;21.87;100.00;94886.78;5055935;28;20074;-80
2023/05/26 09:30:50;;;;;;;11.45;7.10;;;;;;;21.68;100.00;94883.81;5050870;28;20401;-80
2023/05/26 09:33:17;;;;;;;10.30;6.35;;;;;;;22.27;100.00;94882.06;5067451;28;20441;-80
2023/05/26 09:35:44;;;;;;;11.48;6.75;;;;;;;22.19;100.00;94889.03;5022942;28;20036;-80
2023/05/26 09:38:11;;;;;;;10.10;5.53;;;;;;;22.57;100.00;94879.25;5039629;28;20031;-80
2023/05/26 09:40:44;;;;;;;7.47;5.10;;;;;;;22.35;100.00;94883.84;5039514;28;20037;-80
2023/05/26 09:43:10;;;;;;;11.05;5.75;;;;;;;22.00;100.00;94887.63;5039656;28;20361;-81
2023/05/26 09:45:36;;;;;;;10.88;5.60;;;;;;;21.77;93.63;94884.53;5056904;28;20029;-80
2023/05/26 09:48:07;;;;;;;11.63;5.32;;;;;;;22.16;100.00;94887.00;5039515;28;20025;-81
2023/05/26 09:50:33;;;;;;;9.38;5.47;;;;;;;22.14;100.00;94883.88;5039184;28;20032;-80
2023/05/26 09:55:49;;;;;;;8.85;4.18;;;;;;;22.33;100.00;94883.38;5041329;28;20127;-80
2023/05/26 09:58:15;;;;;;;9.32;3.75;;;;;;;22.64;98.69;94884.03;5038905;28;20021;-80
2023/05/26 10:00:43;;;;;;;8.77;5.25;;;;;;;22.03;100.00;94881.66;5038694;28;20037;-80
2023/05/26 10:03:09;;;;;;;12.55;5.05;;;;;;;22.27;100.00;94879.38;5022754;28;20381;-80
2023/05/26 10:05:54;;;;;;;9.90;4.28;;;;;;;22.30;100.00;94878.72;5038466;28;20075;-80
2023/05/26 10:08:39;;;;;;;10.88;5.05;;;;;;;22.31;100.00;94872.28;5022073;28;20051;-80
2023/05/26 10:11:05;;;;;;;7.95;4.35;;;;;;;22.61;99.27;94874.03;5038815;28;20013;-80
2023/05/26 10:13:31;;;;;;;9.30;4.72;;;;;;;22.51;100.00;94872.56;5022153;28;20021;-80
2023/05/26 10:15:56;;;;;;;5.85;4.50;;;;;;;22.48;95.93;94870.56;5037878;28;20451;-80
2023/05/26 10:18:40;;;;;;;7.55;4.22;;;;;;;22.37;88.34;94873.59;5039061;28;20159;-80
2023/05/26 10:21:08;;;;;;;9.15;3.88;;;;;;;22.26;100.00;94864.47;5056222;28;20384;-80
2023/05/26 10:23:43;;;;;;;6.38;3.58;;;;;;;22.47;94.25;94864.41;5038505;28;20024;-80
2023/05/26 10:26:19;;;;;;;7.53;3.92;;;;;;;22.23;95.48;94860.56;5055831;28;20078;-80
2023/05/26 10:28:55;;;;;;;10.77;3.75;;;;;;;22.06;100.00;94863.41;5038625;28;20025;-80
2023/05/26 10:31:32;;;;;;;10.90;3.63;;;;;;;22.29;100.00;94867.25;5038444;28;20140;-80
2023/05/26 10:34:36;;;;;;;8.55;4.47;;;;;;;22.42;81.26;94859.28;5038106;28;20033;-80
2023/05/26 10:39:46;;;;;;;7.57;4.75;;;;;;;22.77;98.31;94858.13;5041042;28;20091;-80
2023/05/26 10:45:50;;;;;;;7.95;4.18;;;;;;;22.18;88.75;94848.22;5055804;28;20468;-80
2023/05/26 10:48:17;;;;;;;11.80;4.25;;;;;;;22.24;97.51;94842.69;5055951;28;20437;-80
2023/05/26 10:57:00;;;;;;;8.10;3.33;;;;;;;22.41;100.00;94841.69;5059132;28;20048;-80
2023/05/26 11:02:20;;;;;;;8.43;3.70;;;;;;;22.67;92.77;94830.75;5076215;28;20031;-80
2023/05/26 11:04:47;;;;;;;5.35;3.75;;;;;;;22.49;93.14;94835.53;5058323;28;20028;-80
2023/05/26 11:07:28;;;;;;;4.55;3.25;;;;;;;22.95;87.09;94830.06;5057991;28;20024;-80
2023/05/26 11:10:05;;;;;;;5.68;3.75;;;;;;;22.98;93.38;94836.63;5041826;28;20031;-80
2023/05/26 11:16:12;;;;;;;9.40;3.60;;;;;;;23.21;77.06;94841.53;5075656;28;20036;-80
2023/05/26 11:18:39;;;;;;;4.63;3.30;;;;;;;22.79;81.31;94829.19;5058240;28;20020;-80
2023/05/26 11:21:06;;;;;;;7.53;3.40;;;;;;;23.32;90.32;94833.84;5041735;28;20455;-80
2023/05/26 11:23:32;;;;;;;5.93;3.35;;;;;;;23.53;84.22;94837.13;5076009;28;20038;-80
2023/05/26 11:25:57;;;;;;;6.15;3.58;;;;;;;23.26;82.73;94826.06;5041221;28;20431;-80
2023/05/26 11:28:23;;;;;;;7.15;3.30;;;;;;;23.80;77.90;94834.03;5075945;28;20056;-80
2023/05/26 11:30:48;;;;;;;9.40;3.30;;;;;;;23.97;84.17;94830.28;5058105;28;20029;-80
2023/05/26 11:33:33;;;;;;;11.68;3.35;;;;;;;23.14;77.83;94831.41;5053159;28;20028;-80
2023/05/26 11:36:05;;;;;;;7.88;3.17;;;;;;;23.19;68.32;94828.47;5049439;28;20115;-80
2023/05/26 11:38:31;;;;;;;10.05;4.18;;;;;;;23.00;69.76;94831.72;5038192;28;20070;-80
2023/05/26 11:43:40;;;;;;;9.27;3.70;;;;;;;23.25;82.99;94827.16;5044986;28;20040;-80
2023/05/26 11:46:11;;;;;;;8.98;3.50;;;;;;;23.49;73.92;94824.78;5038737;28;20347;-80
2023/05/26 11:51:44;;;;;;;8.20;3.13;;;;;;;23.04;66.58;94826.50;5044391;28;20031;-80
2023/05/26 11:54:10;;;;;;;7.75;3.75;;;;;;;22.92;71.11;94833.41;5041591;28;20033;-80
2023/05/26 11:59:21;;;;;;;7.88;3.65;;;;;;;23.75;75.36;94818.22;5052394;28;20044;-80
2023/05/26 12:01:47;;;;;;;9.05;3.13;;;;;;;23.92;73.65;94819.81;5061218;28;20355;-80
2023/05/26 12:04:13;;;;;;;7.07;3.40;;;;;;;24.13;76.53;94803.56;5044458;28;20040;-80
2023/05/26 12:06:40;;;;;;;11.55;3.60;;;;;;;23.92;81.43;94807.22;5060845;28;20093;-80
2023/05/26 12:09:22;;;;;;;7.07;3.15;;;;;;;23.58;67.50;94807.47;5061094;28;20024;-80
2023/05/26 12:11:50;;;;;;;12.05;3.17;;;;;;;23.66;74.59;94811.13;5061246;28;20032;-80
2023/05/26 12:17:18;;;;;;;9.30;2.97;;;;;;;24.24;75.08;94807.28;5063180;28;20066;-80
2023/05/26 12:19:43;;;;;;;6.03;3.53;;;;;;;23.95;72.53;94803.06;5060922;28;20035;-80
2023/05/26 12:22:09;;;;;;;7.50;3.35;;;;;;;23.92;76.68;94799.19;5060859;28;20021;-80
2023/05/26 12:24:36;;;;;;;6.80;3.50;;;;;;;23.43;65.21;94797.50;5060888;28;20417;-80
2023/05/26 12:27:19;;;;;;;8.32;3.97;;;;;;;23.28;74.61;94798.97;5043911;28;20421;-80
2023/05/26 12:29:45;;;;;;;10.38;3.75;;;;;;;23.04;73.65;94797.91;5044375;28;20036;-80
2023/05/26 12:32:11;;;;;;;8.55;3.40;;;;;;;23.22;71.32;94794.97;5060566;28;20025;-80
2023/05/26 12:34:38;;;;;;;13.00;3.88;;;;;;;23.70;78.06;94785.25;5060905;28;20036;-80
2023/05/26 12:37:04;;;;;;;5.75;3.63;;;;;;;24.10;73.45;94778.28;5060388;28;20028;-80
2023/05/26 12:39:30;;;;;;;5.72;4.05;;;;;;;24.50;79.33;94786.47;5039642;28;20033;-80
2023/05/26 12:41:55;;;;;;;7.50;3.85;;;;;;;24.66;79.10;94779.19;5026713;28;20031;-80
2023/05/26 12:44:20;;;;;;;5.50;3.38;;;;;;;25.05;72.72;94777.78;5040674;28;20062;-80
2023/05/26 12:49:30;;;;;;;8.57;4.07;;;;;;;24.29;73.35;94785.59;5043397;28;20036;-80
2023/05/26 12:52:15;;;;;;;9.90;3.80;;;;;;;24.44;68.83;94783.28;5024282;28;20024;-80
2023/05/26 12:54:40;;;;;;;7.93;3.92;;;;;;;24.32;75.42;94783.34;5040547;28;20052;-80
2023/05/26 12:57:05;;;;;;;5.85;3.65;;;;;;;24.80;72.56;94784.16;5042277;28;20413;-80
2023/05/26 12:59:50;;;;;;;6.05;4.10;;;;;;;25.15;69.84;94779.13;5060230;28;20337;-80
2023/05/26 13:02:15;;;;;;;10.20;3.80;;;;;;;25.24;73.48;94777.03;5055753;28;20029;-80
2023/05/26 13:04:40;;;;;;;8.63;3.50;;;;;;;25.08;70.41;94777.06;5078176;28;20322;-80
2023/05/26 13:07:08;;;;;;;9.75;5.43;;;;;;;24.67;68.29;94770.03;5059870;28;20090;-80
2023/05/26 13:09:33;;;;;;;9.15;4.68;;;;;;;24.44;70.35;94775.25;5060480;28;20111;-80
2023/05/26 13:11:58;;;;;;;9.85;5.00;;;;;;;24.45;71.27;94776.78;5060151;28;20128;-80
2023/05/26 13:14:25;;;;;;;7.38;4.15;;;;;;;25.38;70.69;94771.16;5060139;28;20031;-80
2023/05/26 13:16:50;;;;;;;6.35;4.40;;;;;;;25.20;69.60;94771.59;5059682;28;20371;-80
2023/05/26 13:19:16;;;;;;;13.05;4.55;;;;;;;24.99;69.04;94771.91;5060123;28;20028;-80
2023/05/26 13:21:42;;;;;;;10.85;4.65;;;;;;;24.18;67.90;94773.09;5060110;28;20031;-80
2023/05/26 13:27:10;;;;;;;7.47;4.07;;;;;;;23.89;67.55;94761.63;5062265;28;20036;-80
2023/05/26 13:29:36;;;;;;;7.45;4.00;;;;;;;24.18;64.16;94757.03;5060063;28;20028;-80
2023/05/26 13:32:01;;;;;;;9.02;4.95;;;;;;;24.37;67.23;94761.69;5077620;28;20035;-80
2023/05/26 13:34:27;;;;;;;7.53;4.82;;;;;;;24.07;69.47;94751.41;5059516;28;20025;-80
2023/05/26 13:36:52;;;;;;;7.97;5.20;;;;;;;23.86;71.24;94753.19;5042792;28;20456;-80
2023/05/26 13:39:18;;;;;;;7.57;4.70;;;;;;;23.70;73.07;94755.06;5059589;28;20028;-80
2023/05/26 13:41:43;;;;;;;8.15;4.20;;;;;;;24.05;65.34;94751.75;5042974;28;20032;-80
2023/05/26 13:44:08;;;;;;;10.20;5.00;;;;;;;24.51;82.79;94751.31;5059470;28;20352;-80
2023/05/26 13:46:34;;;;;;;6.95;4.57;;;;;;;25.39;75.54;94744.00;5059110;28;20028;-80
2023/05/26 13:48:59;;;;;;;8.30;4.43;;;;;;;25.93;72.78;94756.88;5077189;28;20384;-80
2023/05/26 13:51:25;;;;;;;15.68;5.10;;;;;;;24.78;70.53;94740.06;5077289;28;20024;-80
2023/05/26 13:53:50;;;;;;;8.70;4.95;;;;;;;25.54;67.33;94745.09;5059371;28;20383;-80
2023/05/26 13:56:16;;;;;;;5.80;4.32;;;;;;;25.17;65.29;94744.69;5076757;28;20074;-80
2023/05/26 14:01:25;;;;;;;12.00;4.78;;;;;;;25.36;62.79;94746.59;5061927;28;20042;-80
2023/05/26 14:03:50;;;;;;;12.23;4.72;;;;;;;25.84;64.92;94741.00;5059206;28;20020;-80
2023/05/26 14:06:16;;;;;;;9.35;5.20;;;;;;;25.73;63.02;94748.88;5042537;28;20033;-80
2023/05/26 14:08:41;;;;;;;8.55;4.45;;;;;;;26.57;70.42;94748.38;5058460;28;20017;-80
2023/05/26 14:11:26;;;;;;;11.57;4.72;;;;;;;26.05;61.52;94743.28;5059376;28;20314;-80
2023/05/26 14:13:51;;;;;;;7.75;4.80;;;;;;;25.77;64.05;94749.72;5076996;28;20059;-80
2023/05/26 14:16:17;;;;;;;7.47;4.43;;;;;;;25.76;61.79;94732.06;5058809;28;20056;-80
2023/05/26 14:18:43;;;;;;;7.95;4.53;;;;;;;26.91;56.90;94735.03;5059049;28;20025;-80
2023/05/26 14:24:11;;;;;;;9.98;4.57;;;;;;;27.27;55.71;94740.09;5061718;28;20388;-81
2023/05/26 14:26:37;;;;;;;8.35;4.63;;;;;;;27.88;52.44;94741.94;5041595;28;20318;-81
2023/05/26 14:29:03;;;;;;;6.38;4.07;;;;;;;28.78;50.28;94739.19;5042596;28;20027;-81
2023/05/26 14:31:28;;;;;;;7.53;4.18;;;;;;;29.70;48.22;94739.25;5042321;28;20060;-81
2023/05/26 14:33:54;;;;;;;10.35;4.82;;;;;;;29.25;47.30;94738.66;5058621;28;20059;-81
2023/05/26 14:39:22;;;;;;;7.63;4.30;;;;;;;30.36;45.97;94739.31;5061359;28;20135;-81
2023/05/26 14:41:49;;;;;;;8.77;4.32;;;;;;;30.94;45.20;94725.75;5059620;28;20449;-82
2023/05/26 14:44:14;;;;;;;10.68;4.93;;;;;;;27.82;50.25;94727.25;5058439;28;20032;-82
2023/05/26 14:46:59;;;;;;;8.25;3.90;;;;;;;28.59;49.64;94726.72;5056611;28;20123;-82
2023/05/26 14:49:43;;;;;;;8.25;4.07;;;;;;;28.56;49.37;94719.41;5066351;28;20054;-81
2023/05/26 14:52:08;;;;;;;7.80;4.22;;;;;;;29.77;45.01;94725.75;5058614;28;20032;-81
2023/05/26 14:54:34;;;;;;;7.45;3.28;;;;;;;30.35;45.45;94727.75;5058504;28;20028;-81
2023/05/26 14:57:00;;;;;;;9.20;4.72;;;;;;;30.32;42.04;94717.69;5075788;28;20036;-81
2023/05/26 14:59:25;;;;;;;6.97;3.80;;;;;;;28.41;49.56;94707.78;5042094;28;20024;-81
2023/05/26 15:01:52;;;;;;;6.35;4.45;;;;;;;29.04;46.08;94713.16;5076363;28;20425;-81
2023/05/26 15:04:17;;;;;;;8.13;3.75;;;;;;;31.50;42.29;94708.94;5058708;28;20024;-81
2023/05/26 15:06:42;;;;;;;6.13;3.40;;;;;;;32.82;40.83;94711.03;5075513;28;20448;-81
2023/05/26 15:09:08;;;;;;;8.70;3.95;;;;;;;30.38;43.63;94704.56;5066714;28;20036;-81
2023/05/26 15:11:34;;;;;;;10.30;4.80;;;;;;;27.54;48.88;94710.44;5038533;28;20051;-81
2023/05/26 15:13:59;;;;;;;7.72;3.60;;;;;;;32.35;41.86;94708.00;5038483;28;20117;-81
2023/05/26 15:16:25;;;;;;;11.25;4.60;;;;;;;30.71;41.86;94708.81;5021978;28;20035;-81
2023/05/26 15:18:50;;;;;;;5.13;3.40;;;;;;;31.72;42.60;94696.03;5056123;28;20037;-81
2023/05/26 15:21:35;;;;;;;6.53;3.75;;;;;;;34.08;40.61;94701.72;5041375;28;20134;-81
2023/05/26 15:24:01;;;;;;;4.38;2.85;;;;;;;32.93;41.34;94699.34;5059990;28;20074;-81
2023/05/26 15:26:26;;;;;;;9.75;3.67;;;;;;;31.56;40.91;94700.00;5059455;28;20448;-81
2023/05/26 15:28:51;;;;;;;8.52;3.67;;;;;;;31.40;41.30;94700.47;5059970;28;20345;-81
2023/05/26 15:31:17;;;;;;;5.05;3.40;;;;;;;35.34;35.96;94697.94;5041995;28;20457;-81
2023/05/26 15:34:01;;;;;;;12.05;3.70;;;;;;;32.99;36.46;94700.41;5041973;28;20035;-81
2023/05/26 15:39:29;;;;;;;6.75;2.95;;;;;;;33.12;37.96;94692.53;5044389;28;20044;-81
2023/05/26 15:41:55;;;;;;;7.13;3.72;;;;;;;33.19;38.21;94692.44;5041960;28;20078;-81
2023/05/26 15:44:20;;;;;;;7.47;3.35;;;;;;;35.62;36.00;94685.72;5059494;28;20380;-81
2023/05/26 15:49:31;;;;;;;4.68;3.17;;;;;;;34.51;36.87;94694.84;5064826;28;20106;-82
2023/05/26 15:51:57;;;;;;;5.93;3.40;;;;;;;36.31;35.13;94686.09;5042048;28;20044;-82
2023/05/26 15:57:07;;;;;;;8.82;3.58;;;;;;;36.41;36.23;94676.84;5063801;28;20149;-82
2023/05/26 15:59:35;;;;;;;7.35;2.90;;;;;;;36.14;35.95;94677.16;5047486;28;20463;-82
2023/05/26 16:02:00;;;;;;;8.13;3.30;;;;;;;33.71;37.17;94671.59;5042774;28;20430;-81
2023/05/26 16:04:26;;;;;;;9.73;3.60;;;;;;;28.92;43.79;94669.19;5052976;28;20036;-82
2023/05/26 16:09:35;;;;;;;7.95;3.88;;;;;;;29.74;43.69;94669.03;5057803;28;20429;-81
2023/05/26 16:14:49;;;;;;;7.35;3.47;;;;;;;31.85;39.24;94667.34;5058362;28;20035;-81
2023/05/26 16:17:15;;;;;;;10.63;3.45;;;;;;;31.80;39.35;94661.56;5038360;28;20414;-80
2023/05/26 16:19:40;;;;;;;9.00;4.18;;;;;;;28.46;46.41;94653.53;5067294;28;20059;-81
2023/05/26 16:22:06;;;;;;;8.32;3.38;;;;;;;31.13;40.58;94654.19;5048215;28;20021;-81
2023/05/26 16:24:31;;;;;;;10.50;3.72;;;;;;;28.83;44.42;94649.88;5039406;28;20028;-81
2023/05/26 16:26:57;;;;;;;5.60;3.28;;;;;;;31.21;41.96;94649.50;5069265;28;20013;-81
2023/05/26 16:29:23;;;;;;;5.47;3.13;;;;;;;33.25;37.70;94652.81;5042409;28;20031;-81
2023/05/26 16:31:48;;;;;;;8.57;3.20;;;;;;;30.76;41.91;94645.44;5046987;28;20032;-81
2023/05/26 16:34:14;;;;;;;6.07;2.78;;;;;;;32.07;39.92;94639.31;5054277;28;20143;-81
2023/05/26 16:36:40;;;;;;;4.45;3.10;;;;;;;35.39;37.24;94646.47;5046131;28;20029;-81
2023/05/26 16:39:05;;;;;;;4.75;2.90;;;;;;;35.93;33.92;94643.72;5032385;28;20036;-81
2023/05/26 16:41:31;;;;;;;6.78;3.03;;;;;;;35.47;34.21;94640.88;5041499;28;20033;-81
2023/05/26 16:44:15;;;;;;;5.18;3.20;;;;;;;33.26;37.24;94640.00;5045879;28;20040;-81
2023/05/26 16:47:02;;;;;;;8.05;4.00;;;;;;;30.00;41.62;94643.59;5052184;28;20925;-81